Flight Track Log - Related Links

Times and Time Zones

All times are in EDT time to prevent confusion due to time zone crossing. See the FRG308 flight status page for this flight to view local times or setup timezone preferences in your user account.

Time Position Orientation Groundspeed Altitude Reporting Facility
EDT Latitude Longitude Course Direction KTS MPH feet Rate Location/Type
Fri 02:48:54 PM 42.9333 -87.9000 90° East 124 143 1,400  Level KMKE
Fri 02:49:55 PM 42.9333 -87.8667 90° East 147 169 2,700 793 Climbing KMKE
Fri 02:50:55 PM 42.9833 -87.8667 360° North 201 231 3,000 100 Climbing KMKE
Fri 02:51:55 PM 43.0000 -87.9167 295° West 175 201 2,900  Descending KMKE
Fri 02:52:55 PM 42.9667 -87.9667 228° Southwest 168 193 3,000 50 Climbing KMKE
Fri 02:53:55 PM 42.9500 -88.0167 246° West 166 191 3,000  Level KMKE
Fri 02:55:01 PM 42.9167 -88.0833 236° Southwest 169 194 3,000 -50 Level KMKE
Fri 02:55:56 PM 42.9000 -88.1333 246° West 167 192 2,900  Descending KMKE
Fri 02:56:26 PM 42.8919 -88.1533 241° Southwest 166 191 3,000 -130 Climbing Chicago Center
Fri 02:57:28 PM 42.9328 -88.1767 337° Northwest 164 189 2,700 -145 Descending Chicago Center
Fri 02:58:30 PM 42.9742 -88.1586 18° North 169 194 2,700 -97 Level Chicago Center
Fri 02:59:32 PM 43.0208 -88.1236 29° Northeast 165 190 2,500 -48 Descending Chicago Center
Fri 03:00:34 PM 43.0558 -88.0889 36° Northeast 159 183 2,600 -145 Climbing Chicago Center
Fri 03:01:36 PM 43.0936 -88.0528 35° Northeast 163 188 2,200 97 Descending Chicago Center
Fri 03:02:38 PM 43.1269 -88.0467 North 177 204 2,800 528 Climbing Chicago Center
Fri 03:03:41 PM 43.1378 -88.1050 284° West 160 184 3,300 576 Climbing Chicago Center
Fri 03:04:43 PM 43.1486 -88.1722 282° West 157 181 4,000 339 Climbing Chicago Center
Fri 03:05:45 PM 43.1117 -88.2197 223° Southwest 177 204 4,000 -48 Level Chicago Center
Fri 03:06:47 PM 43.0722 -88.2614 218° Southwest 179 206 3,900 -242 Descending Chicago Center
Fri 03:07:49 PM 43.0281 -88.2883 204° Southwest 177 204 3,500 -435 Descending Chicago Center
Fri 03:08:51 PM 42.9806 -88.2833 176° South 179 206 3,000 -290 Descending Chicago Center
Fri 03:09:53 PM 42.9683 -88.2144 104° East 166 191 2,900 -48 Descending Chicago Center
Fri 03:10:55 PM 42.9883 -88.1614 63° Northeast 159 183 2,900 -242 Level Chicago Center
Fri 03:11:57 PM 43.0231 -88.1214 40° Northeast 161 185 2,400 -387 Descending Chicago Center
Fri 03:12:59 PM 43.0631 -88.0842 34° Northeast 170 196 2,100 -581 Descending Chicago Center
Fri 03:14:01 PM 43.1000 -88.0464 37° Northeast 168 193 1,200  Descending Chicago Center
Fri 03:15:03 PM 43.1356 -88.0100 37° Northeast 149 171 2,100 960 Climbing Chicago Center
Fri 03:16:06 PM 43.1592 -88.0447 313° West 148 170 3,200 864 Climbing Chicago Center
Fri 03:17:08 PM 43.1564 -88.1036 266° West 151 174 3,900 339 Climbing Chicago Center
Fri 03:18:10 PM 43.1389 -88.1644 249° West 165 190 3,900  Level Chicago Center
Fri 03:19:12 PM 43.1283 -88.2144 254° West 146 168 3,900 97 Level Chicago Center
Fri 03:20:14 PM 43.1203 -88.2506 253° West 110 127 4,100 97 Climbing Chicago Center
Fri 03:21:16 PM 43.1122 -88.2947 256° West 104 120 4,100 -97 Level Chicago Center
Fri 03:22:18 PM 43.1297 -88.3225 311° West 99 114 3,900 -48 Descending Chicago Center
Fri 03:23:20 PM 43.1439 -88.3064 40° Northeast 102 117 4,000 48 Climbing Chicago Center
Fri 03:24:22 PM 43.1200 -88.2864 149° Southeast 99 114 4,000  Level Chicago Center
Fri 03:25:24 PM 43.0892 -88.3081 207° Southwest 141 162 4,000 -48 Level Chicago Center
Fri 03:26:27 PM 43.1136 -88.3544 306° West 171 197 3,900  Descending Chicago Center
Fri 03:27:29 PM 43.1300 -88.3397 33° Northeast 172 198 4,000 48 Climbing Chicago Center
Fri 03:28:31 PM 43.1478 -88.3286 25° Northeast 189 217 4,000  Level Chicago Center
Fri 03:29:33 PM 43.1667 -88.3697 302° West 171 197 4,000 -48 Level Chicago Center
Fri 03:30:35 PM 43.1675 -88.3733 288° West 182 209 3,900  Descending Chicago Center
Fri 03:31:37 PM 43.1908 -88.3314 53° Northeast 175 201 4,000  Climbing Chicago Center
Fri 03:32:39 PM 43.1469 -88.2972 150° Southeast 181 208 3,900 -48 Descending Chicago Center
Fri 03:33:41 PM 43.1022 -88.2781 163° South 172 198 3,900  Level Chicago Center
Fri 03:34:43 PM 43.0983 -88.3244 263° West 157 181 3,900  Level Chicago Center
Fri 03:35:45 PM 43.1350 -88.3539 330° Northwest 152 175 3,900  Level Chicago Center
Fri 03:36:48 PM 43.1511 -88.3122 62° Northeast 163 188 3,900  Level Chicago Center
Fri 03:37:50 PM 43.1119 -88.2842 152° Southeast 161 185 3,900  Level Chicago Center
Fri 03:38:52 PM 43.0869 -88.3164 223° Southwest 160 184 3,900 -145 Level Chicago Center
Fri 03:39:54 PM 43.1189 -88.3608 315° West 162 186 3,600 -435 Descending Chicago Center
Fri 03:40:56 PM 43.1647 -88.3772 345° North 174 200 3,000 -290 Descending Chicago Center
Fri 03:41:58 PM 43.1575 -88.3278 101° East 161 185 3,000 -97 Level Chicago Center
Fri 03:43:00 PM 43.1183 -88.2819 139° Southeast 159 183 2,800 -387 Descending Chicago Center
Fri 03:44:02 PM 43.0758 -88.2581 158° South 161 185 2,200 -435 Descending Chicago Center
Fri 03:45:04 PM 43.0339 -88.2325 156° South 162 186 1,900 384 Descending Chicago Center
Fri 03:46:07 PM 43.0214 -88.2067 123° Southeast 147 169 3,000 528 Climbing Chicago Center
Fri 03:47:09 PM 43.0622 -88.2044 North 149 171 3,000 484 Level Chicago Center
Fri 03:48:11 PM 43.0914 -88.2456 314° West 151 174 4,000 484 Climbing Chicago Center
Fri 03:49:13 PM 43.1022 -88.3028 285° West 154 177 4,000  Level Chicago Center
Fri 03:50:15 PM 43.1131 -88.3586 285° West 152 175 4,000 -97 Level Chicago Center
Fri 03:51:17 PM 43.1233 -88.4153 284° West 151 174 3,800 -484 Descending Chicago Center
Fri 03:52:19 PM 43.1128 -88.4767 257° West 173 199 3,000 -435 Descending Chicago Center
Fri 03:53:21 PM 43.0764 -88.4519 154° Southeast 183 211 2,900 -145 Descending Chicago Center
Fri 03:54:23 PM 43.0647 -88.3836 103° East 161 185 2,700 -435 Descending Chicago Center
Fri 03:55:25 PM 43.0553 -88.3269 103° East 156 180 2,000 -672 Descending Chicago Center
Fri 03:56:28 PM 43.0475 -88.2736 101° East 146 168 1,300  Descending Chicago Center
Fri 03:57:30 PM 43.0383 -88.2208 103° East 144 166 2,000 823 Climbing Chicago Center
Fri 03:58:32 PM 42.9894 -88.2144 175° South 151 174 3,000 435 Climbing Chicago Center
Fri 03:59:34 PM 42.9467 -88.2106 176° South 155 178 2,900 -48 Descending Chicago Center
Fri 04:00:36 PM 42.9058 -88.1933 163° South 153 176 2,900  Level Chicago Center
Fri 04:01:38 PM 42.8644 -88.1786 165° South 153 176 2,900  Level Chicago Center
Fri 04:02:40 PM 42.8203 -88.1800 181° South 155 178 2,900  Level Chicago Center
Fri 04:03:42 PM 42.7944 -88.2197 228° Southwest 160 184 2,900 48 Level Chicago Center
Fri 04:04:44 PM 42.8319 -88.2594 322° Northwest 151 174 3,000 48 Climbing Chicago Center
Fri 04:05:46 PM 42.8589 -88.2272 41° Northeast 135 155 3,000 -97 Level Chicago Center
Fri 04:07:50 PM 42.8911 -88.1200 68° East 152 175 2,700 -64 Descending Chicago Center
Fri 04:08:53 PM 42.9025 -88.0653 74° East 150 173 2,800 -336 Climbing Chicago Center
Fri 04:09:55 PM 42.9169 -88.0067 71° East 142 163 2,000 -677 Descending Chicago Center
Fri 04:10:57 PM 42.9278 -87.9661 70° East 139 160 1,400 -581 Descending Chicago Center
Fri 04:11:59 PM 42.9422 -87.9078 71° East 136 157 800 -581 Descending Chicago Center

Login

Don't have an account? Register now (free) for customized features, flight alerts, and more!